Pagrindinis puslapis
METAR-TAF:

METAR-TAF

Oro uostai :

Jonšiopingas, Švedija

platuma: 57-46N, ilguma: 014-05E, Aukštis: 226 m

Dabartinis oras

Ataskaita buvo paskelbta 15 minutes, ne 19:20 UTC
Vėjas 4 kt iš Pietų
Temperatūra 10°C
Drėgmė 93%
Slėgis 1001 hPa
Matomumas 10 km arba daugiau

METAR: ESGJ 231920Z AUTO 18004KT 9999 NCD 10/09 Q1001

Laikas: 21:35 (19:35 UTC)

Prognozė

Ataskaita buvo paskelbta 2 valandos ir 5 minutes, ne 17:30 UTC
Prognozė galioja nuo 23 metu 18 UTC su 24 metu 01 UTC
Vėjas 5 kt iš Pietų
Matomumas 10 km arba daugiau
nėra debesų žemiau 1500 m ir nėra kamuolinių lietaus debesų

TAF: ESGJ 231730Z 2318/2401 19005KT CAVOK

Orai ataskaitas ir orų prognozės (METAR, TAF).

turimą stotys yra geltonos ir raudonos taškus žemėlapyje.

Perkelti pele per norėdami pamatyti stoties vardą.

Tada spustelėkite, norėdami matyti oro stebėjimo ir prognozės.

Norėdami pakeisti žemėlapį: spustelėkite ant žalios mygtukų su juodo kryžiaus žemyn,; žalią mygtuką su brūkšneliu, jei norite nutolinti; arba žalių rodyklių gretimoms žemėlapius.


METAR-TAF: